Time;durP1;ratioP1;P1;durP2;ratioP2;P2;SDS_P1;SDS_P2;PMS_P1;PMS_P2;Temp;Humidity;BMP_temperature;BMP_pressure;BME280_temperature;BME280_humidity;BME280_pressure;Samples;Min_cycle;Max_cycle;Signal;HPM_P1;HPM_P2
2023/05/31 00:05:16;;;;;;;1.33;1.02;;;;;;;19.80;38.25;102419.16;16111968;19;132251;-40
2023/05/31 00:10:38;;;;;;;1.27;1.08;;;;;;;19.79;38.17;102420.22;16110743;19;132777;-39
2023/05/31 00:16:00;;;;;;;3.20;1.20;;;;;;;19.79;38.20;102423.00;16112438;19;129478;-40
2023/05/31 00:21:22;;;;;;;1.13;1.00;;;;;;;19.79;37.88;102423.00;16113858;19;131170;-40
2023/05/31 00:26:44;;;;;;;2.78;0.90;;;;;;;19.77;37.73;102428.75;16113041;19;130826;-42
2023/05/31 00:32:06;;;;;;;1.95;1.23;;;;;;;19.77;37.83;102425.16;16112070;19;130899;-40
2023/05/31 00:37:28;;;;;;;1.35;0.80;;;;;;;19.76;38.04;102415.09;16114337;19;131117;-39
2023/05/31 00:42:50;;;;;;;1.83;1.20;;;;;;;19.75;38.20;102414.28;16115611;19;129673;-41
2023/05/31 00:48:15;;;;;;;1.83;1.00;;;;;;;19.74;37.86;102422.78;16115858;19;131659;-40
2023/05/31 00:53:38;;;;;;;1.92;1.00;;;;;;;19.74;38.19;102422.78;16111089;19;130356;-43
2023/05/31 00:59:01;;;;;;;2.60;1.20;;;;;;;19.73;38.20;102432.19;16110755;19;130152;-41
2023/05/31 01:04:23;;;;;;;1.15;0.95;;;;;;;19.73;37.67;102444.16;16113496;19;129643;-40
2023/05/31 01:09:45;;;;;;;1.05;0.93;;;;;;;19.72;38.12;102444.38;16112285;19;131930;-43
2023/05/31 01:15:19;;;;;;;1.38;1.10;;;;;;;19.72;38.20;102436.91;16115696;19;131349;-40
2023/05/31 01:20:46;;;;;;;1.88;1.05;;;;;;;19.69;38.26;102431.78;16111923;19;128883;-42
2023/05/31 01:26:44;;;;;;;2.28;1.27;;;;;;;19.67;37.95;102437.56;16112216;19;129392;-41
2023/05/31 01:32:08;;;;;;;1.40;1.10;;;;;;;19.66;37.85;102424.75;16105195;19;131949;-41
2023/05/31 01:37:30;;;;;;;1.48;1.02;;;;;;;19.66;37.93;102421.97;16106653;19;130333;-44
2023/05/31 01:42:52;;;;;;;1.25;0.80;;;;;;;19.65;37.64;102413.84;16109896;19;131716;-40
2023/05/31 01:48:15;;;;;;;1.20;1.00;;;;;;;19.64;37.94;102424.09;16111961;19;131294;-43
2023/05/31 01:53:37;;;;;;;1.90;1.05;;;;;;;19.63;37.74;102411.28;16110567;19;129600;-41
2023/05/31 01:59:00;;;;;;;1.30;0.88;;;;;;;19.64;37.94;102401.91;16108814;19;130694;-43
2023/05/31 02:04:21;;;;;;;1.65;0.90;;;;;;;19.62;37.96;102414.28;16105364;19;130631;-45
2023/05/31 02:09:43;;;;;;;1.65;0.98;;;;;;;19.61;37.59;102407.88;16107041;19;132545;-45
2023/05/31 02:15:12;;;;;;;1.40;1.00;;;;;;;19.61;37.92;102405.09;16108376;19;130389;-45
2023/05/31 02:20:34;;;;;;;1.98;1.23;;;;;;;19.60;37.70;102399.78;16107000;19;129273;-44
2023/05/31 02:25:56;;;;;;;2.13;1.08;;;;;;;19.59;37.88;102396.13;16111074;19;129524;-39
2023/05/31 02:31:18;;;;;;;1.42;1.00;;;;;;;19.59;37.68;102404.47;16105766;19;129694;-40
2023/05/31 02:36:40;;;;;;;2.03;1.08;;;;;;;19.57;37.87;102395.47;16101957;19;130103;-40
2023/05/31 02:42:02;;;;;;;1.33;1.00;;;;;;;19.57;38.05;102395.47;16103836;19;130606;-42
2023/05/31 02:47:24;;;;;;;1.77;1.00;;;;;;;19.57;37.64;102398.25;16110490;19;129730;-42
2023/05/31 02:52:46;;;;;;;2.88;1.13;;;;;;;19.56;37.79;102398.50;16104717;19;131226;-43
2023/05/31 02:58:09;;;;;;;1.58;1.08;;;;;;;19.53;37.65;102391.47;16104464;19;129715;-40
2023/05/31 03:03:30;;;;;;;2.65;1.10;;;;;;;19.53;37.88;102383.13;16102043;19;134538;-44
2023/05/31 03:08:53;;;;;;;1.00;0.90;;;;;;;19.53;37.91;102383.13;16103162;19;129786;-42
2023/05/31 03:14:15;;;;;;;1.33;1.08;;;;;;;19.52;37.87;102387.81;16102176;19;131063;-41
2023/05/31 03:19:36;;;;;;;1.77;1.10;;;;;;;19.51;37.66;102391.66;16106146;19;131251;-40
2023/05/31 03:24:58;;;;;;;1.67;1.00;;;;;;;19.51;37.85;102385.25;16104014;19;131543;-42
2023/05/31 03:30:20;;;;;;;2.55;1.08;;;;;;;19.50;37.67;102392.75;16112038;19;130652;-42
2023/05/31 03:35:42;;;;;;;1.30;0.93;;;;;;;19.50;37.95;102383.56;16120701;19;129580;-39
2023/05/31 03:41:04;;;;;;;1.67;1.00;;;;;;;19.49;37.82;102379.06;16119209;19;130410;-39
2023/05/31 03:46:26;;;;;;;3.22;1.05;;;;;;;19.48;37.79;102381.00;16115833;19;130448;-42
2023/05/31 03:51:48;;;;;;;1.15;1.00;;;;;;;19.47;38.07;102383.97;16112802;19;130350;-42
2023/05/31 03:57:10;;;;;;;2.97;1.35;;;;;;;19.46;37.92;102388.69;16114975;19;135600;-40
2023/05/31 04:02:32;;;;;;;0.95;0.93;;;;;;;19.47;37.85;102383.97;16116695;19;131385;-40
2023/05/31 04:07:55;;;;;;;1.80;1.10;;;;;;;19.45;38.13;102383.34;16116715;19;131264;-41
2023/05/31 04:13:17;;;;;;;1.38;0.80;;;;;;;19.44;37.93;102392.75;16111812;19;130342;-41
2023/05/31 04:18:39;;;;;;;2.58;1.20;;;;;;;19.43;38.15;102394.66;16114694;19;131112;-42
2023/05/31 04:24:01;;;;;;;2.10;1.30;;;;;;;19.43;37.83;102404.94;16114788;19;133000;-40
2023/05/31 04:29:25;;;;;;;2.20;1.33;;;;;;;19.42;37.80;102404.06;16114131;19;131801;-43
2023/05/31 04:34:48;;;;;;;1.15;0.98;;;;;;;19.42;37.95;102404.06;16114725;19;129823;-42
2023/05/31 04:40:11;;;;;;;1.30;1.20;;;;;;;19.43;38.09;102407.72;16110852;19;130165;-42
2023/05/31 04:45:33;;;;;;;2.60;1.35;;;;;;;19.41;38.16;102401.50;16112359;19;131817;-40
2023/05/31 04:50:55;;;;;;;1.45;1.35;;;;;;;19.40;38.14;102395.09;16110889;19;129830;-43
2023/05/31 04:56:17;;;;;;;2.03;1.10;;;;;;;19.40;38.04;102394.25;16114209;19;130924;-40
2023/05/31 05:01:40;;;;;;;2.83;1.23;;;;;;;19.40;38.00;102402.59;16112837;19;130285;-43
2023/05/31 05:07:02;;;;;;;1.98;1.30;;;;;;;19.40;37.71;102402.59;16111475;19;131508;-42
2023/05/31 05:12:24;;;;;;;1.95;1.35;;;;;;;19.38;37.76;102398.09;16112403;19;130206;-41
2023/05/31 05:17:46;;;;;;;3.33;1.55;;;;;;;19.37;37.90;102396.38;16113848;19;130825;-41
2023/05/31 05:23:08;;;;;;;2.25;1.52;;;;;;;19.37;38.02;102390.00;16112308;19;129582;-41
2023/05/31 05:28:30;;;;;;;1.55;1.10;;;;;;;19.38;37.87;102392.53;16116697;19;129610;-45
2023/05/31 05:33:52;;;;;;;2.53;1.50;;;;;;;19.38;38.30;102397.25;16112196;19;130341;-40
2023/05/31 05:39:14;;;;;;;4.32;1.60;;;;;;;19.37;38.14;102390.00;16109916;19;130853;-40
2023/05/31 05:44:36;;;;;;;1.77;1.40;;;;;;;19.37;37.89;102399.16;16111084;19;129423;-40
2023/05/31 05:49:58;;;;;;;7.18;1.60;;;;;;;19.38;37.96;102402.81;16106527;19;132084;-41
2023/05/31 05:55:20;;;;;;;2.13;1.67;;;;;;;19.37;38.25;102404.72;16109033;19;129883;-40
2023/05/31 06:00:44;;;;;;;2.30;1.70;;;;;;;19.36;38.01;102397.44;16109633;19;130549;-44
2023/05/31 06:06:06;;;;;;;2.17;1.48;;;;;;;19.37;37.89;102395.56;16109526;19;130622;-45
2023/05/31 06:11:28;;;;;;;1.55;1.17;;;;;;;19.36;38.10;102397.44;16110087;19;130216;-44
2023/05/31 06:16:50;;;;;;;1.50;1.20;;;;;;;19.36;37.94;102405.78;16108398;19;130815;-41
2023/05/31 06:22:12;;;;;;;2.22;1.58;;;;;;;19.38;37.95;102413.91;16110377;19;129368;-45
2023/05/31 06:27:35;;;;;;;5.25;1.52;;;;;;;19.37;38.37;102406.66;16104901;19;130910;-43
2023/05/31 06:32:57;;;;;;;3.45;1.85;;;;;;;19.38;38.29;102411.97;16110504;19;129910;-44
2023/05/31 06:38:21;;;;;;;3.47;1.90;;;;;;;19.38;38.18;102417.53;16110094;19;130916;-41
2023/05/31 06:43:43;;;;;;;3.22;1.95;;;;;;;19.38;38.46;102414.75;16107691;19;130397;-50
2023/05/31 06:49:06;;;;;;;2.65;1.88;;;;;;;19.52;38.02;102415.56;16102846;19;132280;-43
2023/05/31 06:54:36;;;;;;;5.95;1.75;;;;;;;19.67;38.03;102414.47;16106686;19;131528;-41
2023/05/31 06:59:58;;;;;;;4.85;1.77;;;;;;;19.81;38.36;102418.94;16109419;19;129931;-41
2023/05/31 07:05:20;;;;;;;4.00;1.73;;;;;;;19.94;38.09;102412.47;16119264;19;129600;-41
2023/05/31 07:10:44;;;;;;;2.40;2.17;;;;;;;20.04;37.92;102413.97;16123932;19;130204;-40
2023/05/31 07:16:06;;;;;;;3.60;2.13;;;;;;;20.12;38.15;102408.16;16122388;19;129321;-41
2023/05/31 07:21:28;;;;;;;3.83;2.15;;;;;;;20.20;37.74;102391.22;16123826;19;129753;-43
2023/05/31 07:26:50;;;;;;;3.63;2.10;;;;;;;20.27;37.83;102392.06;16126450;19;130394;-43
2023/05/31 07:32:12;;;;;;;3.65;2.15;;;;;;;20.34;37.61;102388.38;16120395;19;131141;-45
2023/05/31 07:37:34;;;;;;;3.33;2.20;;;;;;;20.38;37.56;102392.44;16114062;19;129463;-43
2023/05/31 07:42:56;;;;;;;4.32;2.30;;;;;;;20.45;37.90;102390.47;16119154;19;130530;-40
2023/05/31 07:48:19;;;;;;;4.50;2.40;;;;;;;20.49;37.54;102386.16;16118248;19;130295;-43
2023/05/31 07:53:40;;;;;;;5.57;2.05;;;;;;;20.54;38.00;102385.50;16120772;19;129949;-43
2023/05/31 07:59:02;;;;;;;5.28;2.42;;;;;;;20.56;37.55;102375.84;16123055;19;129336;-40
2023/05/31 08:04:24;;;;;;;4.78;2.15;;;;;;;20.62;37.48;102378.81;16124148;19;131742;-40
2023/05/31 08:09:47;;;;;;;3.40;1.88;;;;;;;20.64;37.64;102377.50;16123814;19;130066;-41
2023/05/31 08:15:10;;;;;;;3.70;2.17;;;;;;;20.67;37.82;102371.50;16118985;19;129425;-41
2023/05/31 08:20:33;;;;;;;4.22;1.98;;;;;;;20.69;37.44;102374.91;16117606;19;131038;-40
2023/05/31 08:25:56;;;;;;;3.95;1.77;;;;;;;20.72;37.57;102379.16;16120344;19;129540;-43
2023/05/31 08:31:18;;;;;;;2.65;1.75;;;;;;;20.74;37.34;102374.22;16117540;19;129927;-44
2023/05/31 08:36:40;;;;;;;4.72;2.08;;;;;;;20.74;37.66;102366.72;16118126;19;129995;-44
2023/05/31 08:42:05;;;;;;;6.72;2.05;;;;;;;20.77;37.71;102356.25;16118824;19;129509;-41
2023/05/31 08:47:35;;;;;;;3.17;1.90;;;;;;;20.77;37.46;102359.03;16117017;19;129835;-45
2023/05/31 08:52:58;;;;;;;3.38;2.03;;;;;;;20.78;37.75;102367.19;16119136;19;132559;-42
2023/05/31 08:58:20;;;;;;;3.92;2.10;;;;;;;20.77;37.45;102347.91;16118566;19;129453;-43
2023/05/31 09:03:43;;;;;;;3.10;1.90;;;;;;;20.77;37.37;102362.69;16120452;19;131893;-43
2023/05/31 09:09:08;;;;;;;5.50;1.83;;;;;;;20.77;37.27;102353.47;16118418;19;129710;-40
2023/05/31 09:14:31;;;;;;;3.88;2.35;;;;;;;20.79;37.73;102354.13;16118536;19;131102;-40
2023/05/31 09:19:55;;;;;;;6.65;2.15;;;;;;;20.78;37.42;102344.94;16115834;19;131131;-43
2023/05/31 09:25:17;;;;;;;3.10;2.20;;;;;;;20.78;37.78;102339.38;16112923;19;129763;-42
2023/05/31 09:30:40;;;;;;;9.80;2.60;;;;;;;20.77;37.40;102332.09;16112097;19;129336;-40
2023/05/31 09:36:02;;;;;;;4.85;2.30;;;;;;;20.75;37.52;102320.31;16104199;19;129755;-39
2023/05/31 09:41:25;;;;;;;3.95;2.03;;;;;;;20.76;37.81;102319.28;16106843;19;130396;-44
2023/05/31 09:46:47;;;;;;;2.90;1.92;;;;;;;20.78;37.75;102321.81;16111896;19;129837;-40
2023/05/31 09:52:13;;;;;;;9.32;2.38;;;;;;;20.77;37.66;102320.97;16109753;19;129845;-44
2023/05/31 09:57:40;;;;;;;4.60;1.88;;;;;;;20.75;37.92;102311.97;16100644;19;129770;-42
2023/05/31 10:03:03;;;;;;;3.88;2.20;;;;;;;20.73;37.54;102305.78;16105165;19;132176;-40
2023/05/31 10:08:26;;;;;;;9.05;2.17;;;;;;;20.71;37.57;102296.81;16104172;19;132522;-40
2023/05/31 10:13:52;;;;;;;6.18;2.20;;;;;;;20.68;37.83;102295.34;16111179;19;131212;-40
2023/05/31 10:19:24;;;;;;;4.75;2.25;;;;;;;20.68;37.73;102278.66;16112364;19;129636;-42
2023/05/31 10:24:56;;;;;;;10.77;2.78;;;;;;;20.67;37.82;102290.84;16112103;19;133472;-42
2023/05/31 10:30:25;;;;;;;9.40;2.65;;;;;;;20.63;37.83;102284.03;16106548;19;131397;-39
2023/05/31 10:35:50;;;;;;;4.82;2.53;;;;;;;20.63;37.72;102274.84;16107824;19;130789;-40
2023/05/31 10:41:18;;;;;;;7.70;2.75;;;;;;;20.64;37.94;102273.78;16109414;19;131165;-39
2023/05/31 10:46:50;;;;;;;7.68;2.55;;;;;;;20.63;37.45;102264.56;16098407;19;130542;-42
2023/05/31 10:52:16;;;;;;;6.47;2.53;;;;;;;20.62;37.59;102264.81;16107518;19;132195;-42
2023/05/31 10:57:38;;;;;;;8.32;2.30;;;;;;;20.60;37.60;102263.09;16109248;19;129592;-40
2023/05/31 11:03:00;;;;;;;4.63;2.25;;;;;;;20.60;37.34;102249.22;16102856;19;131257;-40
2023/05/31 11:08:23;;;;;;;8.95;2.05;;;;;;;20.61;37.66;102244.50;16084730;19;130413;-39
2023/05/31 11:14:09;;;;;;;5.10;2.65;;;;;;;20.62;37.34;102253.69;16109407;19;129444;-42
2023/05/31 11:19:42;;;;;;;6.85;2.35;;;;;;;20.62;37.03;102240.63;16108232;19;131997;-43
2023/05/31 11:25:07;;;;;;;6.72;2.28;;;;;;;20.61;37.58;102238.94;16107683;19;130635;-46
2023/05/31 11:30:35;;;;;;;6.13;2.50;;;;;;;20.62;37.50;102243.41;16107462;19;129860;-40
2023/05/31 11:36:02;;;;;;;4.72;1.90;;;;;;;20.62;37.16;102240.63;16106964;19;130486;-40
2023/05/31 11:41:24;;;;;;;5.30;2.13;;;;;;;20.62;37.19;102223.09;16105327;19;129461;-42
2023/05/31 11:46:49;;;;;;;4.82;2.25;;;;;;;20.62;37.40;102228.66;16104625;19;133270;-42
2023/05/31 11:52:16;;;;;;;4.97;1.90;;;;;;;20.63;37.33;102216.47;16118423;19;130039;-40
2023/05/31 11:57:51;;;;;;;7.72;3.15;;;;;;;20.64;36.91;102220.94;16116191;19;129530;-44
2023/05/31 12:03:16;;;;;;;3.80;2.17;;;;;;;20.62;37.15;102210.03;16112872;19;130509;-40
2023/05/31 12:08:38;;;;;;;6.40;2.20;;;;;;;20.62;36.80;102200.88;16118295;19;130069;-40
2023/05/31 12:14:00;;;;;;;6.05;2.05;;;;;;;20.63;36.81;102194.22;16122231;19;130604;-41
2023/05/31 12:19:22;;;;;;;5.22;2.03;;;;;;;20.63;36.85;102180.31;16114739;19;129134;-41
2023/05/31 12:24:50;;;;;;;4.38;2.15;;;;;;;20.62;37.01;102171.13;16116020;19;129652;-40
2023/05/31 12:30:17;;;;;;;5.32;1.98;;;;;;;20.63;37.11;102174.75;16115032;19;132402;-41
2023/05/31 12:35:44;;;;;;;3.70;2.15;;;;;;;20.63;36.74;102172.81;16118455;19;130856;-44
2023/05/31 12:41:06;;;;;;;5.22;1.83;;;;;;;20.62;36.82;102156.38;16117979;19;134168;-40
2023/05/31 12:46:28;;;;;;;4.78;2.10;;;;;;;20.64;36.87;102157.00;16115168;19;131008;-40
2023/05/31 12:52:07;;;;;;;6.47;2.30;;;;;;;20.64;36.73;102154.22;16112741;19;131049;-40
2023/05/31 12:57:29;;;;;;;5.97;2.45;;;;;;;20.64;37.07;102157.00;16113799;19;130178;-41
2023/05/31 13:02:52;;;;;;;4.32;2.08;;;;;;;20.64;36.70;102145.88;16111851;19;134316;-41
2023/05/31 13:08:14;;;;;;;6.63;2.22;;;;;;;20.63;36.62;102136.66;16116598;19;129969;-40
2023/05/31 13:13:36;;;;;;;4.47;2.05;;;;;;;20.63;36.75;102130.28;16113408;19;130086;-40
2023/05/31 13:18:59;;;;;;;5.03;2.20;;;;;;;20.64;36.76;102127.25;16115436;19;129477;-40
2023/05/31 13:24:21;;;;;;;4.82;2.10;;;;;;;20.64;37.00;102130.03;16110213;19;131164;-41
2023/05/31 13:29:42;;;;;;;4.93;2.20;;;;;;;20.64;36.80;102127.25;16110355;19;130187;-39
2023/05/31 13:35:08;;;;;;;6.13;2.13;;;;;;;20.66;36.84;102121.47;16114701;19;131655;-43
2023/05/31 13:40:30;;;;;;;6.00;2.00;;;;;;;20.65;36.81;102117.00;16116045;19;131860;-40
2023/05/31 13:45:52;;;;;;;5.53;1.73;;;;;;;20.64;36.77;102124.47;16110978;19;131338;-43
2023/05/31 13:51:15;;;;;;;3.60;1.52;;;;;;;20.65;36.61;102112.28;16111496;19;131563;-41
2023/05/31 13:56:37;;;;;;;5.07;2.00;;;;;;;20.66;36.44;102107.56;16111513;19;130558;-42
2023/05/31 14:01:59;;;;;;;3.45;1.85;;;;;;;20.66;36.39;102113.97;16112013;19;132115;-40
2023/05/31 14:07:21;;;;;;;4.60;1.88;;;;;;;20.66;36.84;102102.00;16111774;19;130470;-41
2023/05/31 14:12:43;;;;;;;7.65;2.17;;;;;;;20.67;36.38;102092.59;16110502;19;129842;-41
2023/05/31 14:18:06;;;;;;;4.88;1.88;;;;;;;20.67;36.64;102093.44;16108346;19;130457;-41
2023/05/31 14:23:28;;;;;;;4.00;1.83;;;;;;;20.68;36.79;102089.56;16098160;19;133488;-40
2023/05/31 14:28:49;;;;;;;5.15;2.17;;;;;;;20.68;36.65;102083.13;16102649;19;130589;-42
2023/05/31 14:34:11;;;;;;;5.22;2.03;;;;;;;20.68;36.40;102084.00;16100054;19;130853;-39
2023/05/31 14:39:35;;;;;;;5.53;2.00;;;;;;;20.69;36.70;102084.84;16107403;19;131235;-41
2023/05/31 14:44:57;;;;;;;5.07;1.90;;;;;;;20.69;36.56;102090.41;16094506;19;130219;-43
2023/05/31 14:50:19;;;;;;;4.35;1.80;;;;;;;20.69;36.56;102073.72;16105271;19;131032;-39
2023/05/31 14:55:41;;;;;;;5.85;2.20;;;;;;;20.70;36.50;102064.31;16107696;19;130588;-41
2023/05/31 15:01:03;;;;;;;4.40;1.95;;;;;;;20.70;36.39;102059.59;16107044;19;131202;-41
2023/05/31 15:06:25;;;;;;;5.55;1.90;;;;;;;20.71;36.59;102071.56;16102496;19;129911;-40
2023/05/31 15:11:47;;;;;;;4.43;1.90;;;;;;;20.71;36.21;102046.53;16098460;19;131502;-40
2023/05/31 15:17:09;;;;;;;5.45;1.85;;;;;;;20.73;36.49;102052.72;16104985;19;129709;-42
2023/05/31 15:22:31;;;;;;;7.53;1.95;;;;;;;20.73;36.71;102055.50;16106029;19;130916;-40
2023/05/31 15:27:53;;;;;;;5.18;1.73;;;;;;;20.74;36.42;102052.47;16119825;19;130265;-42
2023/05/31 15:33:15;;;;;;;5.22;2.10;;;;;;;20.73;36.70;102048.03;16122152;19;130862;-43
2023/05/31 15:38:37;;;;;;;5.15;2.08;;;;;;;20.75;36.41;102050.56;16120404;19;131598;-40
2023/05/31 15:43:59;;;;;;;5.97;2.20;;;;;;;20.73;36.28;102045.25;16121349;19;129440;-41
2023/05/31 15:49:21;;;;;;;8.85;2.17;;;;;;;20.75;36.71;102045.88;16121407;19;129385;-40
2023/05/31 15:54:43;;;;;;;4.55;2.10;;;;;;;20.77;36.38;102042.88;16119926;19;129319;-40
2023/05/31 16:00:05;;;;;;;3.95;1.77;;;;;;;20.77;36.46;102042.88;16111170;19;131125;-41
2023/05/31 16:05:27;;;;;;;8.82;4.18;;;;;;;20.86;36.96;102038.69;16112213;19;130991;-40
2023/05/31 16:10:49;;;;;;;12.57;5.07;;;;;;;20.95;36.74;102030.00;16120062;19;129514;-40
2023/05/31 16:16:11;;;;;;;8.80;3.72;;;;;;;21.00;37.21;102030.97;16116439;19;130203;-39
2023/05/31 16:21:33;;;;;;;9.10;4.20;;;;;;;21.07;37.13;102028.09;16120417;19;130089;-40
2023/05/31 16:26:55;;;;;;;10.23;4.20;;;;;;;21.13;37.24;102017.97;16110478;19;130165;-41
2023/05/31 16:32:17;;;;;;;14.27;3.75;;;;;;;21.20;37.69;102025.13;16104512;19;130652;-40
2023/05/31 16:37:39;;;;;;;10.57;3.75;;;;;;;21.26;37.58;102028.06;16111411;19;130990;-40
2023/05/31 16:43:01;;;;;;;10.32;3.30;;;;;;;21.29;38.08;102017.28;16111821;19;130234;-40
2023/05/31 16:48:23;;;;;;;8.70;3.55;;;;;;;21.32;37.82;102016.81;16118021;19;131244;-42
2023/05/31 16:53:45;;;;;;;16.83;3.47;;;;;;;21.30;37.96;102012.56;16117104;19;129540;-43
2023/05/31 16:59:08;;;;;;;12.73;3.55;;;;;;;21.27;37.81;102013.06;16115645;19;130748;-41
2023/05/31 17:04:30;;;;;;;14.07;3.47;;;;;;;21.28;38.03;102001.69;16115191;19;130687;-41
2023/05/31 17:09:52;;;;;;;12.98;3.53;;;;;;;21.26;37.77;102001.06;16111930;19;129850;-39
2023/05/31 17:15:14;;;;;;;14.75;3.42;;;;;;;21.24;37.34;102000.44;16112044;19;130209;-39
2023/05/31 17:20:36;;;;;;;9.75;3.25;;;;;;;21.22;37.55;101997.91;16116596;19;129565;-39
2023/05/31 17:25:58;;;;;;;15.48;3.63;;;;;;;21.21;37.44;101987.88;16114689;19;130898;-40
2023/05/31 17:31:21;;;;;;;12.30;3.00;;;;;;;21.20;37.50;101994.53;16113107;19;129754;-39
2023/05/31 17:36:43;;;;;;;9.07;2.50;;;;;;;21.19;37.65;101992.81;16116506;19;129946;-42
2023/05/31 17:42:05;;;;;;;13.15;3.35;;;;;;;21.20;37.42;101996.47;16110440;19;130650;-40
2023/05/31 17:47:28;;;;;;;8.25;2.75;;;;;;;21.19;37.18;102001.16;16114693;19;129850;-41
2023/05/31 17:52:49;;;;;;;9.50;3.03;;;;;;;21.16;37.32;101993.31;16114374;19;129932;-40
2023/05/31 17:58:13;;;;;;;7.68;2.80;;;;;;;21.16;37.07;101992.44;16112732;19;129958;-40
2023/05/31 18:03:35;;;;;;;7.20;3.00;;;;;;;21.12;37.26;101986.53;16111348;19;130545;-41
2023/05/31 18:08:57;;;;;;;7.95;2.60;;;;;;;21.13;37.25;101995.69;16114254;19;129772;-41
2023/05/31 18:14:19;;;;;;;8.07;2.88;;;;;;;21.11;37.01;101990.38;16108116;19;130673;-39
2023/05/31 18:19:41;;;;;;;8.30;2.30;;;;;;;21.11;37.28;101986.78;16104963;19;130659;-39
2023/05/31 18:25:04;;;;;;;8.57;2.45;;;;;;;21.09;37.00;101980.59;16110711;19;129919;-41
2023/05/31 18:30:29;;;;;;;6.97;2.58;;;;;;;21.06;37.42;101990.25;16110080;19;131643;-40
2023/05/31 18:35:50;;;;;;;6.67;2.27;;;;;;;21.04;36.98;101982.13;16102045;19;130250;-39
2023/05/31 18:41:13;;;;;;;10.48;2.63;;;;;;;21.02;37.13;101978.75;16107512;19;131156;-39
2023/05/31 18:46:34;;;;;;;6.38;2.60;;;;;;;21.01;37.19;101981.78;16108782;19;129589;-40
2023/05/31 18:52:00;;;;;;;6.97;2.25;;;;;;;20.98;37.32;101983.09;16105825;19;130842;-40
2023/05/31 18:57:22;;;;;;;8.88;2.95;;;;;;;20.96;36.93;101989.97;16107876;19;129936;-41
2023/05/31 19:02:49;;;;;;;7.50;2.60;;;;;;;20.93;37.23;101984.88;16136215;19;129229;-40
2023/05/31 19:08:11;;;;;;;9.18;2.42;;;;;;;20.91;37.57;101987.91;16139330;19;130884;-39
2023/05/31 19:13:33;;;;;;;4.50;2.00;;;;;;;20.87;37.37;101993.09;16135261;19;130115;-39
2023/05/31 19:18:57;;;;;;;10.93;2.45;;;;;;;20.85;37.43;101989.69;16135199;19;131167;-41
2023/05/31 19:24:19;;;;;;;5.35;2.33;;;;;;;20.83;37.61;101997.41;16130567;19;131009;-38
2023/05/31 19:29:43;;;;;;;9.80;2.40;;;;;;;20.81;37.32;102004.31;16138626;19;130690;-38
2023/05/31 19:35:06;;;;;;;5.60;2.10;;;;;;;20.78;37.72;102011.19;16134821;19;130233;-39
2023/05/31 19:40:29;;;;;;;4.25;2.33;;;;;;;20.77;37.92;102020.63;16134396;19;131143;-39
2023/05/31 19:45:51;;;;;;;6.85;2.70;;;;;;;20.75;38.16;102019.97;16133922;19;130327;-40
2023/05/31 19:51:13;;;;;;;8.30;2.50;;;;;;;20.73;38.37;102025.78;16123507;19;131370;-38
2023/05/31 19:56:35;;;;;;;7.32;2.35;;;;;;;20.80;39.11;102030.41;16126443;19;131000;-37
2023/05/31 20:01:57;;;;;;;8.10;3.17;;;;;;;20.86;39.44;102035.06;16138739;19;129671;-40
2023/05/31 20:07:19;;;;;;;9.18;2.30;;;;;;;20.92;39.96;102042.44;16137014;19;129794;-38
2023/05/31 20:12:42;;;;;;;12.38;2.90;;;;;;;21.01;39.98;102048.53;16122691;19;131245;-37
2023/05/31 20:18:04;;;;;;;10.23;3.33;;;;;;;21.05;40.13;102055.31;16117822;19;129647;-47
2023/05/31 20:23:26;;;;;;;6.10;2.90;;;;;;;21.09;40.07;102052.94;16118121;19;130157;-47
2023/05/31 20:28:48;;;;;;;8.82;2.83;;;;;;;21.13;40.20;102063.34;16110637;19;130501;-37
2023/05/31 20:34:10;;;;;;;7.35;2.85;;;;;;;21.15;40.32;102066.75;16109869;19;131346;-38
2023/05/31 20:39:32;;;;;;;14.70;3.55;;;;;;;21.16;40.04;102074.03;16112791;19;130215;-38
2023/05/31 20:44:54;;;;;;;12.80;2.95;;;;;;;21.13;40.46;102071.69;16110897;19;129619;-38
2023/05/31 20:50:16;;;;;;;11.82;3.53;;;;;;;21.11;40.43;102073.03;16112813;19;130642;-43
2023/05/31 20:55:38;;;;;;;9.32;3.55;;;;;;;21.07;40.43;102075.41;16112716;19;131003;-44
2023/05/31 21:01:01;;;;;;;12.75;3.78;;;;;;;21.03;40.39;102079.75;16111780;19;131721;-42
2023/05/31 21:06:23;;;;;;;12.98;3.45;;;;;;;20.99;40.40;102089.66;16117236;19;130469;-41
2023/05/31 21:11:49;;;;;;;8.07;3.15;;;;;;;20.94;40.15;102087.56;16102515;19;130294;-41
2023/05/31 21:17:12;;;;;;;7.60;3.15;;;;;;;20.90;40.11;102091.91;16109744;19;130325;-41
2023/05/31 21:22:34;;;;;;;8.88;3.15;;;;;;;20.87;40.27;102081.22;16101017;19;132887;-42
2023/05/31 21:27:56;;;;;;;10.40;3.20;;;;;;;20.84;40.29;102093.69;16106679;19;131427;-43
2023/05/31 21:33:18;;;;;;;6.47;3.30;;;;;;;20.82;40.20;102083.88;16110553;19;129613;-41
2023/05/31 21:38:41;;;;;;;10.27;3.28;;;;;;;20.81;40.58;102087.75;16112084;19;131840;-43
2023/05/31 21:44:03;;;;;;;8.93;3.25;;;;;;;20.79;40.51;102101.03;16111678;19;130275;-43
2023/05/31 21:49:25;;;;;;;8.75;3.15;;;;;;;20.76;40.06;102102.34;16110976;19;130601;-42
2023/05/31 21:54:47;;;;;;;6.32;2.78;;;;;;;20.74;40.46;102093.34;16112471;19;130870;-40
2023/05/31 22:00:10;;;;;;;11.48;3.30;;;;;;;20.72;40.35;102106.63;16112871;19;131247;-41
2023/05/31 22:05:32;;;;;;;10.38;3.47;;;;;;;20.71;40.07;102102.16;16108340;19;130252;-42
2023/05/31 22:10:54;;;;;;;6.18;2.95;;;;;;;20.69;39.95;102102.41;16108212;19;131062;-41
2023/05/31 22:16:20;;;;;;;7.30;3.45;;;;;;;20.67;40.44;102106.50;16112653;19;131180;-46
2023/05/31 22:21:43;;;;;;;8.77;3.38;;;;;;;20.66;39.94;102110.34;16109978;19;129901;-41
2023/05/31 22:27:05;;;;;;;5.63;2.72;;;;;;;20.63;40.47;102111.66;16106500;19;130178;-38
2023/05/31 22:32:27;;;;;;;6.78;2.72;;;;;;;20.63;40.47;102120.00;16101530;19;129921;-41
2023/05/31 22:37:49;;;;;;;12.45;3.15;;;;;;;20.63;40.27;102121.94;16102913;19;129515;-40
2023/05/31 22:43:11;;;;;;;9.55;2.78;;;;;;;20.67;40.22;102131.53;16101888;19;129863;-43
2023/05/31 22:48:36;;;;;;;5.60;2.88;;;;;;;20.66;40.28;102127.88;16103961;19;130652;-40
2023/05/31 22:53:58;;;;;;;9.73;3.00;;;;;;;20.67;40.30;102125.97;16107993;19;132127;-40
2023/05/31 22:59:20;;;;;;;6.50;2.60;;;;;;;20.66;40.12;102135.38;16110972;19;130035;-42
2023/05/31 23:04:43;;;;;;;11.43;3.15;;;;;;;20.66;40.47;102127.03;16114743;19;129543;-40
2023/05/31 23:10:05;;;;;;;9.90;3.13;;;;;;;20.65;40.49;102128.13;16112455;19;130307;-42
2023/05/31 23:15:30;;;;;;;11.55;2.78;;;;;;;20.64;40.25;102137.53;16124031;19;130534;-45
2023/05/31 23:20:54;;;;;;;7.37;2.80;;;;;;;20.64;40.43;102145.88;16134942;19;129922;-47
2023/05/31 23:26:17;;;;;;;6.80;2.77;;;;;;;20.63;39.85;102149.75;16119267;19;130458;-41
2023/05/31 23:31:40;;;;;;;7.82;2.72;;;;;;;20.62;40.17;102145.25;16107541;19;130057;-40
2023/05/31 23:37:02;;;;;;;8.32;3.00;;;;;;;20.60;39.96;102148.28;16106039;19;130129;-41
2023/05/31 23:42:23;;;;;;;7.60;2.53;;;;;;;20.60;40.27;102153.84;16103022;19;129955;-41
2023/05/31 23:47:45;;;;;;;8.45;2.58;;;;;;;20.59;39.90;102158.53;16112799;19;131336;-41
2023/05/31 23:53:08;;;;;;;7.38;2.90;;;;;;;20.58;40.13;102162.38;16118947;19;131736;-43
2023/05/31 23:58:30;;;;;;;8.90;2.60;;;;;;;20.57;40.20;102169.03;16116421;19;130968;-40
